createdAt,value
2023-01-23T00:01:04.774Z,9.25
2023-01-23T00:03:32.117Z,7.78
2023-01-23T00:06:05.451Z,8.70
2023-01-23T00:08:35.135Z,8.27
2023-01-23T00:11:05.647Z,8.05
2023-01-23T00:13:32.823Z,9.20
2023-01-23T00:16:00.340Z,9.00
2023-01-23T00:18:27.579Z,8.60
2023-01-23T00:20:54.758Z,8.60
2023-01-23T00:23:21.943Z,8.88
2023-01-23T00:25:49.132Z,8.77
2023-01-23T00:28:16.283Z,7.85
2023-01-23T00:30:45.350Z,8.30
2023-01-23T00:33:12.551Z,8.32
2023-01-23T00:35:39.800Z,8.57
2023-01-23T00:38:06.978Z,9.00
2023-01-23T00:40:34.444Z,8.95
2023-01-23T00:43:01.650Z,8.63
2023-01-23T00:45:28.865Z,8.35
2023-01-23T00:47:56.016Z,8.18
2023-01-23T00:50:23.121Z,8.15
2023-01-23T00:52:50.362Z,8.60
2023-01-23T00:55:17.702Z,8.75
2023-01-23T00:57:45.017Z,9.18
2023-01-23T01:00:12.560Z,8.40
2023-01-23T01:02:39.702Z,9.02
2023-01-23T01:05:07.090Z,8.95
2023-01-23T01:07:34.369Z,7.93
2023-01-23T01:10:01.679Z,8.27
2023-01-23T01:12:28.811Z,8.80
2023-01-23T01:14:56.515Z,8.50
2023-01-23T01:17:24.066Z,7.65
2023-01-23T01:19:51.206Z,8.25
2023-01-23T01:22:18.824Z,7.90
2023-01-23T01:24:45.981Z,9.60
2023-01-23T01:27:13.152Z,7.80
2023-01-23T01:29:41.055Z,8.20
2023-01-23T01:32:08.335Z,7.60
2023-01-23T01:34:35.653Z,7.55
2023-01-23T01:37:02.789Z,7.32
2023-01-23T01:39:29.931Z,8.48
2023-01-23T01:41:57.466Z,8.07
2023-01-23T01:44:25.365Z,8.07
2023-01-23T01:46:52.737Z,7.55
2023-01-23T01:49:30.059Z,7.68
2023-01-23T01:52:03.603Z,7.90
2023-01-23T01:54:39.343Z,7.03
2023-01-23T01:57:24.611Z,7.53
2023-01-23T01:59:53.074Z,7.57
2023-01-23T02:02:24.702Z,6.35
2023-01-23T02:04:53.480Z,7.50
2023-01-23T02:07:30.615Z,7.90
2023-01-23T02:09:58.044Z,7.90
2023-01-23T02:12:27.037Z,7.07
2023-01-23T02:14:54.547Z,7.07
2023-01-23T02:17:21.847Z,6.97
2023-01-23T02:20:02.191Z,7.22
2023-01-23T02:22:29.754Z,7.05
2023-01-23T02:25:05.354Z,6.63
2023-01-23T02:27:32.508Z,7.40
2023-01-23T02:30:00.000Z,7.55
2023-01-23T02:32:31.956Z,7.15
2023-01-23T02:35:01.613Z,7.47
2023-01-23T02:37:30.072Z,7.60
2023-01-23T02:39:58.976Z,7.32
2023-01-23T02:42:26.336Z,7.60
2023-01-23T02:44:55.813Z,6.78
2023-01-23T02:47:23.335Z,6.82
2023-01-23T02:49:50.469Z,7.30
2023-01-23T02:52:17.670Z,6.70
2023-01-23T02:54:44.872Z,6.80
2023-01-23T02:57:14.307Z,7.05
2023-01-23T03:00:00.454Z,7.60
2023-01-23T03:02:29.442Z,7.93
2023-01-23T03:04:56.694Z,7.70
2023-01-23T03:07:24.141Z,9.20
2023-01-23T03:09:51.326Z,7.78
2023-01-23T03:12:18.635Z,8.60
2023-01-23T03:14:48.120Z,8.00
2023-01-23T03:17:15.953Z,7.55
2023-01-23T03:19:43.186Z,8.48
2023-01-23T03:22:10.631Z,7.78
2023-01-23T03:24:39.679Z,8.13
2023-01-23T03:27:06.802Z,7.80
2023-01-23T03:29:59.906Z,8.10
2023-01-23T03:32:27.187Z,8.18
2023-01-23T03:34:56.226Z,8.90
2023-01-23T03:37:23.498Z,9.02
2023-01-23T03:40:10.443Z,8.27
2023-01-23T03:42:37.824Z,9.52
2023-01-23T03:45:10.150Z,9.90
2023-01-23T03:47:37.323Z,8.20
2023-01-23T03:50:06.784Z,8.43
2023-01-23T03:52:38.082Z,8.57
2023-01-23T03:55:06.242Z,8.88
2023-01-23T03:57:33.947Z,9.13
2023-01-23T04:00:19.763Z,9.73
2023-01-23T04:02:57.487Z,8.95
2023-01-23T04:05:24.954Z,9.93
2023-01-23T04:07:52.061Z,9.20
2023-01-23T04:10:19.710Z,8.90
2023-01-23T04:12:52.473Z,10.23
2023-01-23T04:15:19.760Z,9.48
2023-01-23T04:17:47.064Z,10.32
2023-01-23T04:20:14.324Z,10.45
2023-01-23T04:22:43.490Z,10.38
2023-01-23T04:25:10.707Z,10.13
2023-01-23T04:27:38.359Z,10.52
2023-01-23T04:30:07.667Z,9.63
2023-01-23T04:32:35.738Z,9.50
2023-01-23T04:35:03.261Z,9.65
2023-01-23T04:37:31.212Z,10.27
2023-01-23T04:39:59.718Z,10.00
2023-01-23T04:42:27.160Z,10.80
2023-01-23T04:45:03.869Z,10.55
2023-01-23T04:47:33.951Z,10.32
2023-01-23T04:50:03.437Z,10.88
2023-01-23T04:52:33.731Z,11.23
2023-01-23T04:55:00.868Z,10.85
2023-01-23T04:57:27.992Z,9.88
2023-01-23T05:00:09.613Z,9.68
2023-01-23T05:02:37.418Z,10.15
2023-01-23T05:05:04.956Z,10.95
2023-01-23T05:07:32.238Z,9.80
2023-01-23T05:10:13.893Z,11.07
2023-01-23T05:12:42.929Z,10.27
2023-01-23T05:15:14.170Z,10.73
2023-01-23T05:17:42.880Z,11.77
2023-01-23T05:20:11.692Z,10.93
2023-01-23T05:22:51.981Z,10.30
2023-01-23T05:25:25.168Z,10.82
2023-01-23T05:27:53.316Z,11.38
2023-01-23T05:30:21.562Z,12.07
2023-01-23T05:32:51.494Z,12.02
2023-01-23T05:35:21.443Z,12.35
2023-01-23T05:37:49.862Z,11.15
2023-01-23T05:40:19.895Z,11.27
2023-01-23T05:43:16.704Z,11.40
2023-01-23T05:45:43.986Z,12.10
2023-01-23T05:48:20.008Z,11.85
2023-01-23T05:50:47.123Z,11.13
2023-01-23T05:53:14.631Z,11.27
2023-01-23T05:55:42.309Z,11.57
2023-01-23T05:58:12.567Z,11.70
2023-01-23T06:00:58.389Z,10.77
2023-01-23T06:03:44.441Z,11.30
2023-01-23T06:06:30.843Z,11.43
2023-01-23T06:08:59.366Z,11.98
2023-01-23T06:11:26.622Z,11.50
2023-01-23T06:13:53.825Z,11.05
2023-01-23T06:16:21.043Z,11.20
2023-01-23T06:18:48.333Z,11.85
2023-01-23T06:21:18.198Z,10.85
2023-01-23T06:23:45.982Z,11.30
2023-01-23T06:26:13.225Z,11.05
2023-01-23T06:28:40.789Z,10.35
2023-01-23T06:31:10.190Z,10.77
2023-01-23T06:33:52.111Z,11.55
2023-01-23T06:36:22.386Z,11.85
2023-01-23T06:38:49.941Z,11.60
2023-01-23T06:41:22.483Z,11.45
2023-01-23T06:43:53.709Z,12.13
2023-01-23T06:46:23.964Z,11.87
2023-01-23T06:48:53.924Z,10.82
2023-01-23T06:51:21.205Z,11.23
2023-01-23T06:53:49.343Z,13.48
2023-01-23T06:56:16.837Z,12.40
2023-01-23T06:58:45.947Z,12.20
2023-01-23T07:01:22.596Z,11.45
2023-01-23T07:04:09.044Z,12.13
2023-01-23T07:06:37.561Z,12.43
2023-01-23T07:09:04.842Z,12.50
2023-01-23T07:11:32.659Z,12.63
2023-01-23T07:14:00.111Z,13.77
2023-01-23T07:16:28.858Z,15.82
2023-01-23T07:18:58.921Z,11.85
2023-01-23T07:21:32.608Z,11.98
2023-01-23T07:23:59.886Z,12.80
2023-01-23T07:26:29.591Z,12.63
2023-01-23T07:28:56.757Z,14.30
2023-01-23T07:31:24.194Z,14.15
2023-01-23T07:33:51.674Z,12.50
2023-01-23T07:36:19.141Z,12.90
2023-01-23T07:38:46.567Z,13.85
2023-01-23T07:41:14.376Z,12.48
2023-01-23T07:43:41.753Z,11.90
2023-01-23T07:46:09.596Z,9.88
2023-01-23T07:48:37.437Z,11.18
2023-01-23T07:51:05.065Z,11.40
2023-01-23T07:53:32.336Z,10.60
2023-01-23T07:55:59.495Z,11.52
2023-01-23T07:58:26.691Z,11.98
2023-01-23T08:00:53.802Z,11.10
2023-01-23T08:03:21.175Z,11.52
2023-01-23T08:05:51.403Z,11.13
2023-01-23T08:08:18.599Z,11.80
2023-01-23T08:10:46.070Z,12.32
2023-01-23T08:13:13.469Z,13.63
2023-01-23T08:15:40.613Z,9.80
2023-01-23T08:18:08.059Z,11.73
2023-01-23T08:20:35.293Z,11.68
2023-01-23T08:23:02.684Z,10.80
2023-01-23T08:25:29.899Z,11.23
2023-01-23T08:27:57.293Z,11.80
2023-01-23T08:30:24.544Z,10.88
2023-01-23T08:32:51.693Z,10.43
2023-01-23T08:35:19.354Z,10.80
2023-01-23T08:37:46.637Z,10.75
2023-01-23T08:40:14.009Z,11.10
2023-01-23T08:42:41.097Z,10.65
2023-01-23T08:45:08.643Z,10.73
2023-01-23T08:47:36.790Z,11.90
2023-01-23T08:50:05.360Z,11.82
2023-01-23T08:52:34.599Z,15.95
2023-01-23T08:55:01.901Z,19.13
2023-01-23T08:57:29.151Z,13.02
2023-01-23T08:59:56.639Z,15.98
2023-01-23T09:02:25.071Z,15.02
2023-01-23T09:04:52.388Z,16.83
2023-01-23T09:07:19.790Z,14.93
2023-01-23T09:09:46.910Z,13.80
2023-01-23T09:12:14.338Z,14.25
2023-01-23T09:14:41.576Z,12.57
2023-01-23T09:17:08.704Z,14.77
2023-01-23T09:19:35.891Z,14.70
2023-01-23T09:22:03.467Z,13.02
2023-01-23T09:24:30.556Z,12.30
2023-01-23T09:26:58.367Z,14.10
2023-01-23T09:29:25.509Z,12.20
2023-01-23T09:31:53.037Z,11.52
2023-01-23T09:34:20.364Z,11.55
2023-01-23T09:36:47.562Z,11.32
2023-01-23T09:39:14.855Z,11.65
2023-01-23T09:41:44.303Z,12.35
2023-01-23T09:44:11.551Z,12.05
2023-01-23T09:46:43.778Z,11.50
2023-01-23T09:49:11.054Z,11.48
2023-01-23T09:51:38.474Z,11.93
2023-01-23T09:54:09.774Z,12.45
2023-01-23T09:56:39.279Z,12.05
2023-01-23T09:59:12.156Z,13.10
2023-01-23T10:01:39.535Z,12.65
2023-01-23T10:04:07.510Z,14.18
2023-01-23T10:06:51.471Z,11.52
2023-01-23T10:09:28.522Z,11.98
2023-01-23T10:12:04.597Z,12.40
2023-01-23T10:14:51.973Z,12.68
2023-01-23T10:17:34.084Z,11.48
2023-01-23T10:20:14.818Z,12.13
2023-01-23T10:22:51.748Z,11.57
2023-01-23T10:25:21.391Z,11.50
2023-01-23T10:27:49.568Z,10.48
2023-01-23T10:30:16.633Z,10.82
2023-01-23T10:32:46.797Z,12.07
2023-01-23T10:35:25.556Z,10.77
2023-01-23T10:38:05.044Z,11.07
2023-01-23T10:40:51.251Z,11.35
2023-01-23T10:43:22.038Z,10.85
2023-01-23T10:45:50.073Z,12.07
2023-01-23T10:48:30.981Z,15.48
2023-01-23T10:50:58.313Z,12.27
2023-01-23T10:53:25.845Z,12.07
2023-01-23T10:55:55.628Z,11.95
2023-01-23T10:58:45.786Z,13.65
2023-01-23T11:01:25.688Z,13.00
2023-01-23T11:03:52.892Z,11.27
2023-01-23T11:06:22.105Z,12.45
2023-01-23T11:09:00.347Z,13.48
2023-01-23T11:11:31.600Z,12.15
2023-01-23T11:14:06.388Z,12.35
2023-01-23T11:16:33.962Z,12.30
2023-01-23T11:19:10.099Z,12.55
2023-01-23T11:21:39.304Z,16.90
2023-01-23T11:24:38.661Z,12.98
2023-01-23T11:27:16.023Z,14.55
2023-01-23T11:30:03.449Z,13.55
2023-01-23T11:32:33.952Z,12.77
2023-01-23T11:35:11.579Z,12.55
2023-01-23T11:37:40.678Z,11.90
2023-01-23T11:40:15.243Z,12.98
2023-01-23T11:42:43.543Z,16.63
2023-01-23T11:45:26.662Z,13.50
2023-01-23T11:48:01.149Z,13.38
2023-01-23T11:50:54.962Z,12.68
2023-01-23T11:53:40.733Z,15.35
2023-01-23T11:56:28.418Z,13.73
2023-01-23T11:59:05.886Z,13.27
2023-01-23T12:02:03.437Z,12.23
2023-01-23T12:04:36.693Z,13.13
2023-01-23T12:07:12.755Z,14.98
2023-01-23T12:09:46.122Z,12.77
2023-01-23T12:12:15.943Z,12.20
2023-01-23T12:15:09.255Z,12.65
2023-01-23T12:17:36.775Z,14.15
2023-01-23T12:20:16.571Z,15.27
2023-01-23T12:23:02.306Z,14.23
2023-01-23T12:25:35.148Z,11.88
2023-01-23T12:28:20.846Z,12.32
2023-01-23T12:31:05.407Z,12.65
2023-01-23T12:33:41.363Z,12.00
2023-01-23T12:36:21.769Z,12.20
2023-01-23T12:39:09.180Z,12.65
2023-01-23T12:41:53.433Z,16.73
2023-01-23T12:44:27.948Z,12.23
2023-01-23T12:47:13.782Z,12.40
2023-01-23T12:49:43.361Z,12.88
2023-01-23T12:52:16.877Z,14.43
2023-01-23T12:55:04.265Z,15.02
2023-01-23T12:57:59.032Z,14.43
2023-01-23T13:00:36.735Z,11.80
2023-01-23T13:03:03.927Z,12.82
2023-01-23T13:05:35.061Z,12.30
2023-01-23T13:08:22.585Z,23.63
2023-01-23T13:11:32.221Z,13.77
2023-01-23T13:14:00.814Z,12.95
2023-01-23T13:16:32.223Z,18.38
2023-01-23T13:19:19.518Z,13.38
2023-01-23T13:22:05.888Z,13.95
2023-01-23T13:25:05.532Z,12.07
2023-01-23T13:27:47.222Z,11.13
2023-01-23T13:30:23.420Z,11.65
2023-01-23T13:32:51.755Z,11.80
2023-01-23T13:35:49.303Z,10.85
2023-01-23T13:38:22.319Z,10.23
2023-01-23T13:41:04.464Z,10.27
2023-01-23T13:43:46.398Z,9.98
2023-01-23T13:46:23.869Z,10.83
2023-01-23T14:21:41.747Z,19.42
2023-01-23T14:27:09.443Z,14.88
2023-01-23T14:29:36.830Z,13.10
2023-01-23T14:32:04.029Z,14.48
2023-01-23T14:34:39.075Z,12.85
2023-01-23T14:37:08.754Z,13.23
2023-01-23T14:39:36.979Z,11.25
2023-01-23T14:42:06.484Z,12.63
2023-01-23T14:44:42.861Z,13.18
2023-01-23T14:47:16.949Z,12.77
2023-01-23T14:49:44.520Z,11.93
2023-01-23T14:52:21.483Z,11.50
2023-01-23T14:54:54.121Z,11.15
2023-01-23T14:57:23.531Z,13.80
2023-01-23T14:59:51.269Z,11.93
2023-01-23T15:02:33.593Z,13.45
2023-01-23T15:05:12.960Z,13.07
2023-01-23T15:08:00.297Z,12.18
2023-01-23T15:10:32.786Z,11.70
2023-01-23T15:13:02.336Z,10.82
2023-01-23T15:15:33.972Z,11.57
2023-01-23T15:18:01.803Z,12.30
2023-01-23T15:20:29.913Z,12.32
2023-01-23T15:22:57.382Z,13.07
2023-01-23T15:25:34.929Z,15.32
2023-01-23T15:28:02.422Z,16.30
2023-01-23T15:30:29.885Z,12.57
2023-01-23T15:32:57.905Z,13.45
2023-01-23T15:35:25.488Z,11.32
2023-01-23T15:37:59.612Z,12.57
2023-01-23T15:40:28.017Z,12.23
2023-01-23T15:43:12.039Z,12.77
2023-01-23T15:45:39.304Z,13.07
2023-01-23T15:48:06.978Z,13.13
2023-01-23T15:50:34.410Z,14.18
2023-01-23T15:53:01.580Z,13.57
2023-01-23T15:55:29.031Z,12.93
2023-01-23T15:57:56.883Z,12.88
2023-01-23T16:00:25.551Z,12.23
2023-01-23T16:02:56.779Z,12.32
2023-01-23T16:05:32.254Z,12.00
2023-01-23T16:08:02.340Z,12.20
2023-01-23T16:10:31.623Z,12.38
2023-01-23T16:12:59.030Z,13.52
2023-01-23T16:15:27.761Z,12.85
2023-01-23T16:17:55.279Z,13.20
2023-01-23T16:20:24.379Z,13.88
2023-01-23T16:22:53.442Z,12.85
2023-01-23T16:25:41.817Z,13.02
2023-01-23T16:28:14.552Z,14.23
2023-01-23T16:30:41.648Z,12.60
2023-01-23T16:33:09.370Z,12.75
2023-01-23T16:35:36.840Z,12.85
2023-01-23T16:38:04.177Z,12.50
2023-01-23T16:40:32.036Z,14.82
2023-01-23T16:42:59.922Z,13.38
2023-01-23T16:45:28.218Z,13.05
2023-01-23T16:47:55.416Z,13.40
2023-01-23T16:50:26.799Z,12.73
2023-01-23T16:53:01.936Z,13.45
2023-01-23T16:55:34.238Z,13.77
2023-01-23T16:58:02.055Z,16.00
2023-01-23T17:00:35.068Z,12.95
2023-01-23T17:03:03.852Z,13.98
2023-01-23T17:05:31.100Z,14.75
2023-01-23T17:07:58.199Z,12.82
2023-01-23T17:10:29.841Z,13.32
2023-01-23T17:13:01.951Z,13.73
2023-01-23T17:15:30.145Z,14.38
2023-01-23T17:17:59.672Z,14.65
2023-01-23T17:20:28.584Z,13.82
2023-01-23T17:22:56.186Z,13.77
2023-01-23T17:25:24.777Z,13.18
2023-01-23T17:28:07.263Z,14.02
2023-01-23T17:30:40.476Z,14.13
2023-01-23T17:33:14.574Z,14.52
2023-01-23T17:35:43.056Z,13.93
2023-01-23T17:38:17.181Z,13.43
2023-01-23T17:40:45.169Z,14.23
2023-01-23T17:43:13.361Z,14.77
2023-01-23T17:45:41.501Z,14.20
2023-01-23T17:48:13.832Z,14.00
2023-01-23T17:50:42.887Z,14.07
2023-01-23T17:53:12.048Z,14.88
2023-01-23T17:55:41.221Z,16.00
2023-01-23T17:58:08.600Z,14.45
2023-01-23T18:00:35.842Z,18.30
2023-01-23T18:03:03.401Z,18.90
2023-01-23T18:05:30.743Z,19.38
2023-01-23T18:07:57.890Z,20.58
2023-01-23T18:10:28.923Z,21.38
2023-01-23T18:13:05.127Z,20.40
2023-01-23T18:15:38.179Z,19.63
2023-01-23T18:18:05.353Z,21.50
2023-01-23T18:20:33.176Z,18.10
2023-01-23T18:23:00.808Z,21.00
2023-01-23T18:25:28.253Z,19.80
2023-01-23T18:27:56.351Z,20.10
2023-01-23T18:30:42.436Z,18.73
2023-01-23T18:33:15.444Z,19.35
2023-01-23T18:35:42.538Z,19.85
2023-01-23T18:38:21.734Z,19.33
2023-01-23T18:41:09.906Z,22.33
2023-01-23T18:43:39.725Z,19.60
2023-01-23T18:46:12.939Z,18.52
2023-01-23T18:48:41.522Z,16.38
2023-01-23T18:51:08.921Z,15.77
2023-01-23T18:53:49.010Z,17.88
2023-01-23T18:56:22.361Z,19.27
2023-01-23T18:59:11.642Z,19.42
2023-01-23T19:01:52.210Z,18.35
2023-01-23T19:04:21.173Z,17.00
2023-01-23T19:06:48.626Z,18.10
2023-01-23T19:09:19.832Z,20.05
2023-01-23T19:11:56.743Z,22.67
2023-01-23T19:14:38.034Z,22.05
2023-01-23T19:17:09.853Z,21.27
2023-01-23T19:19:42.093Z,22.80
2023-01-23T19:22:12.732Z,21.85
2023-01-23T19:24:39.970Z,19.65
2023-01-23T19:27:23.401Z,19.60
2023-01-23T19:29:50.685Z,19.02
2023-01-23T19:32:18.299Z,17.20
2023-01-23T19:34:45.674Z,17.10
2023-01-23T19:37:13.871Z,15.27
2023-01-23T19:39:41.381Z,15.52
2023-01-23T19:42:13.464Z,16.85
2023-01-23T19:44:40.663Z,16.25
2023-01-23T19:47:08.589Z,15.50
2023-01-23T19:49:35.846Z,16.67
2023-01-23T19:52:03.662Z,16.73
2023-01-23T19:54:30.784Z,15.55
2023-01-23T19:56:58.183Z,15.82
2023-01-23T19:59:26.450Z,16.27
2023-01-23T20:01:54.071Z,16.35
2023-01-23T20:04:22.577Z,16.08
2023-01-23T20:06:51.597Z,16.08
2023-01-23T20:09:18.867Z,20.17
2023-01-23T20:11:46.512Z,15.05
2023-01-23T20:14:14.982Z,16.60
2023-01-23T20:16:43.449Z,14.50
2023-01-23T20:19:16.648Z,16.33
2023-01-23T20:21:44.114Z,15.75
2023-01-23T20:24:11.738Z,16.05
2023-01-23T20:26:39.388Z,15.95
2023-01-23T20:29:07.873Z,15.77
2023-01-23T20:31:35.772Z,16.05
2023-01-23T20:34:03.534Z,15.48
2023-01-23T20:36:37.282Z,15.73
2023-01-23T20:39:05.724Z,13.98
2023-01-23T20:41:32.924Z,16.42
2023-01-23T20:44:02.680Z,15.85
2023-01-23T20:46:29.925Z,17.60
2023-01-23T20:48:57.502Z,14.48
2023-01-23T20:51:24.665Z,15.43
2023-01-23T20:53:53.175Z,17.30
2023-01-23T20:56:29.514Z,16.40
2023-01-23T20:59:15.911Z,15.93
2023-01-23T21:02:02.198Z,15.50
2023-01-23T21:04:33.718Z,15.35
2023-01-23T21:07:01.441Z,16.98
2023-01-23T21:09:28.844Z,17.45
2023-01-23T21:11:56.062Z,16.45
2023-01-23T21:14:23.740Z,16.38
2023-01-23T21:16:52.509Z,17.10
2023-01-23T21:19:22.450Z,16.15
2023-01-23T21:21:49.703Z,16.27
2023-01-23T21:24:17.000Z,16.52
2023-01-23T21:26:44.330Z,16.48
2023-01-23T21:29:11.611Z,17.00
2023-01-23T21:31:39.611Z,17.92
2023-01-23T21:34:08.312Z,16.83
2023-01-23T21:36:38.062Z,16.90
2023-01-23T21:39:07.556Z,17.65
2023-01-23T21:41:35.811Z,17.15
2023-01-23T21:44:03.170Z,18.63
2023-01-23T21:49:14.315Z,17.33
2023-01-23T21:51:41.545Z,18.50
2023-01-23T21:54:11.786Z,16.55
2023-01-23T21:56:41.617Z,17.98
2023-01-23T21:59:11.310Z,16.63
2023-01-23T22:01:45.618Z,18.00
2023-01-23T22:04:19.111Z,17.55
2023-01-23T22:06:49.127Z,18.08
2023-01-23T22:09:19.518Z,17.15
2023-01-23T22:11:47.434Z,17.00
2023-01-23T22:14:15.029Z,17.85
2023-01-23T22:16:50.696Z,18.15
2023-01-23T22:19:19.519Z,18.00
2023-01-23T22:21:47.066Z,17.90
2023-01-23T22:24:14.876Z,16.95
2023-01-23T22:26:42.660Z,17.70
2023-01-23T22:29:09.874Z,16.95
2023-01-23T22:31:37.335Z,17.75
2023-01-23T22:34:04.751Z,18.67
2023-01-23T22:36:31.962Z,19.30
2023-01-23T22:38:59.111Z,18.38
2023-01-23T22:41:28.481Z,18.70
2023-01-23T22:43:56.825Z,18.55
2023-01-23T22:46:24.288Z,19.23
2023-01-23T22:48:52.168Z,18.65
2023-01-23T22:51:23.200Z,18.55
2023-01-23T22:53:51.472Z,18.77
2023-01-23T22:56:18.555Z,18.45
2023-01-23T22:58:46.716Z,18.33
2023-01-23T23:01:14.174Z,18.02
2023-01-23T23:03:41.668Z,19.33
2023-01-23T23:06:09.695Z,19.38
2023-01-23T23:08:37.140Z,17.80
2023-01-23T23:11:06.305Z,19.48
2023-01-23T23:13:34.618Z,18.42
2023-01-23T23:16:24.868Z,19.30
2023-01-23T23:18:53.096Z,18.42
2023-01-23T23:21:21.750Z,18.20
2023-01-23T23:23:48.909Z,19.42
2023-01-23T23:26:16.338Z,19.48
2023-01-23T23:28:43.653Z,21.33
2023-01-23T23:31:11.117Z,19.00
2023-01-23T23:33:38.656Z,18.08
2023-01-23T23:36:05.970Z,19.42
2023-01-23T23:38:33.166Z,19.13
2023-01-23T23:41:01.958Z,19.15
2023-01-23T23:43:29.484Z,19.10
2023-01-23T23:45:57.750Z,19.55
2023-01-23T23:48:25.547Z,18.77
2023-01-23T23:50:53.207Z,19.48
2023-01-23T23:53:20.651Z,19.35
2023-01-23T23:55:48.052Z,18.73
2023-01-23T23:58:15.405Z,19.15
